• Join FlightAware (Why Join?)
  • Login
  • US Flag 
03:37AM EDT


 

Airport Tracker/Info


-or-


 

Live Flight TrackerFlight Track Log ✈ AAL1326 ✈ 07-May-2013 ✈ KMCI - KORD

Flight Track Log - Related Links

Times and Time Zones

All times are in EDT time to prevent confusion due to time zone crossing. See the AAL1326 flight status page for this flight to view local times or setup timezone preferences in your user account.

Time Position Orientation Groundspeed Altitude Reporting Facility
EDT Latitude Longitude Course Direction KTS MPH feet Rate Location/Type
04:27PM 39.3997 -94.5726 46° Northeast  Level FlightAware Approximate
04:27PM 39.1900 -94.6290 41° Northeast 276 318 6,800  Level FlightAware
04:28PM 39.4728 -94.4870 41° Northeast  Level FlightAware Approximate
04:28PM 39.1970 -94.5870 78° East 289 333 8,100  Level FlightAware
04:28PM 39.2110 -94.5690 45° Northeast 292 336 8,900 3,180 Climbing FlightAware
04:28PM 39.2310 -94.5580 23° Northeast 299 344 9,700 2,580 Climbing FlightAware
04:29PM 39.2850 -94.5250 25° Northeast 336 387 11,300 2,940 Climbing FlightAware
04:30PM 39.3440 -94.4770 32° Northeast 347 399 13,900 3,480 Climbing FlightAware
04:30PM 39.3990 -94.4320 32° Northeast 359 413 16,300 3,480 Climbing FlightAware
04:31PM 39.4560 -94.3860 32° Northeast 367 422 18,600 3,300 Climbing FlightAware
04:32PM 39.5160 -94.3270 37° Northeast 374 430 21,000 2,880 Climbing FlightAware
04:32PM 39.5700 -94.2620 43° Northeast 392 451 22,700 1,500 Climbing FlightAware
04:33PM 39.6220 -94.1990 43° Northeast 400 460 23,000 900 Climbing FlightAware
04:34PM 39.6820 -94.1240 44° Northeast 403 464 24,000 1,800 Climbing FlightAware
04:34PM 39.7380 -94.0560 43° Northeast 412 474 25,600 2,760 Climbing FlightAware
04:35PM 39.7940 -93.9880 43° Northeast 405 466 27,700 2,880 Climbing FlightAware
04:36PM 39.8490 -93.9060 49° Northeast 403 464 29,700 2,460 Climbing FlightAware
04:37PM 39.8930 -93.8260 54° Northeast 405 466 31,200 2,100 Climbing FlightAware
04:37PM 39.9250 -93.7250 68° East 407 468 32,700 1,260 Climbing FlightAware
04:38PM 39.9510 -93.6340 70° East 431 496 33,000 180 Climbing FlightAware
04:39PM 39.9790 -93.5330 70° East 447 514 33,000  Level FlightAware
04:39PM 40.0120 -93.4170 70° East 448 516 33,000  Level FlightAware
04:40PM 40.0430 -93.3060 70° East 446 513 33,000  Level FlightAware
04:41PM 40.0680 -93.2150 70° East 445 512 33,000  Level FlightAware
04:42PM 40.1030 -93.0900 70° East 443 510 33,000  Level FlightAware
04:42PM 40.1270 -93.0030 70° East 442 509 33,000  Level FlightAware
04:43PM 40.1540 -92.9020 71° East 442 509 33,000  Level FlightAware
04:44PM 40.1890 -92.7770 70° East 441 507 33,000  Level FlightAware
04:44PM 40.2120 -92.6920 70° East 441 507 33,000  Level FlightAware
04:45PM 40.2420 -92.5790 71° East 440 506 33,000  Level FlightAware
04:46PM 40.2690 -92.4790 70° East 441 507 33,000  Level FlightAware
04:46PM 40.3000 -92.3640 71° East 440 506 33,000  Level FlightAware
04:47PM 40.3270 -92.2660 70° East 439 505 33,000  Level FlightAware
04:48PM 40.3550 -92.1590 71° East 437 503 33,000  Level FlightAware
04:48PM 40.3780 -92.0760 70° East 437 503 33,000  Level FlightAware
04:49PM 40.4080 -91.9700 70° East 437 503 33,000  Level FlightAware
04:50PM 40.4310 -91.8850 70° East 437 503 33,000  Level FlightAware
04:51PM 40.4670 -91.7360 72° East 436 502 33,000  Level FlightAware
04:51PM 40.5010 -91.6070 71° East 435 501 33,000  Level FlightAware
04:52PM 40.5300 -91.4950 71° East 436 502 33,000  Level FlightAware
04:53PM 40.5580 -91.3890 71° East 435 501 33,000  Level FlightAware
04:54PM 40.5960 -91.2790 66° East 435 501 33,000  Level FlightAware
04:54PM 40.6270 -91.1920 65° Northeast 435 501 33,000  Level FlightAware
04:55PM 40.6620 -91.0870 66° East 435 501 33,000  Level FlightAware
04:56PM 40.7000 -90.9760 66° East 435 501 33,000  Level FlightAware
04:56PM 40.7320 -90.8800 66° East 435 501 33,000  Level FlightAware
04:57PM 40.7650 -90.7830 66° East 435 501 33,000  Level FlightAware
04:58PM 40.8010 -90.6750 66° East 436 502 33,000  Level FlightAware
04:58PM 40.8330 -90.5800 66° East 436 502 33,000  Level FlightAware
04:59PM 40.8720 -90.4660 66° East 438 504 33,000 -480 Level FlightAware
05:00PM 40.9040 -90.3680 67° East 440 506 32,400 -900 Descending FlightAware
05:01PM 40.9350 -90.2730 67° East 438 504 31,800 -960 Descending FlightAware
05:01PM 40.9710 -90.1660 66° East 439 505 31,100 -900 Descending FlightAware
05:02PM 40.9990 -90.0810 66° East 440 506 30,600 -1,200 Descending FlightAware
05:03PM 41.0380 -89.9630 66° East 445 512 29,500 -1,560 Descending FlightAware
05:03PM 41.0750 -89.8490 67° East 448 516 28,300 -1,860 Descending FlightAware
05:04PM 41.1080 -89.7470 67° East 448 516 26,900 -2,340 Descending FlightAware
05:05PM 41.1430 -89.6410 66° East 437 503 25,000 -2,460 Descending FlightAware
05:06PM 41.1910 -89.5100 64° Northeast 424 488 22,800 -2,220 Descending FlightAware
05:06PM 41.2280 -89.4190 62° Northeast 415 478 21,500 -1,980 Descending FlightAware
05:07PM 41.2690 -89.3190 61° Northeast 407 468 20,000 -1,980 Descending FlightAware
05:08PM 41.3040 -89.2320 62° Northeast 399 459 18,700 -1,920 Descending FlightAware
05:09PM 41.3420 -89.1370 62° Northeast 387 445 17,300 -1,920 Descending FlightAware
05:09PM 41.3750 -89.0540 62° Northeast 380 437 16,000 -1,980 Descending FlightAware
05:10PM 41.4090 -88.9690 62° Northeast 375 432 14,700 -1,860 Descending FlightAware
05:11PM 41.4440 -88.8800 62° Northeast 367 422 13,400 -1,800 Descending FlightAware
05:11PM 41.4720 -88.8000 65° Northeast 352 405 12,200 -1,680 Descending FlightAware
05:12PM 41.4780 -88.7030 85° East 327 376 11,100 -1,140 Descending FlightAware
05:12PM 41.4860 -88.6590 76° East 303 349 10,900 -300 Descending FlightAware
05:13PM 41.4990 -88.6360 53° Northeast 291 335 10,900  Level FlightAware
05:13PM 41.5350 -88.5840 47° Northeast 283 326 10,900  Level FlightAware
05:14PM 41.5450 -88.5630 58° Northeast 282 325 10,900  Level FlightAware
05:14PM 41.5700 -88.4880 66° East 286 329 10,900 -780 Level FlightAware
05:15PM 41.5910 -88.4240 66° East 288 331 9,800 -1,620 Descending FlightAware
05:15PM 41.6040 -88.3850 66° East 287 330 9,200 -1,560 Descending FlightAware
05:16PM 41.6200 -88.3380 66° East 283 326 8,400 -1,620 Descending FlightAware
05:16PM 41.6360 -88.2900 66° East 281 323 7,600 -1,560 Descending FlightAware
05:17PM 41.6530 -88.2530 58° Northeast 272 313 7,000 -660 Descending FlightAware
05:17PM 41.6790 -88.2240 40° Northeast 242 278 7,000 -420 Level FlightAware
05:18PM 41.7040 -88.1930 43° Northeast 227 261 6,600 -780 Descending FlightAware
05:18PM 41.7210 -88.1730 41° Northeast 228 262 6,300 -780 Descending FlightAware
05:19PM 41.7350 -88.1560 42° Northeast 228 262 6,100 -840 Descending FlightAware
05:19PM 41.7580 -88.1300 40° Northeast 214 246 5,700 -1,020 Descending FlightAware
05:19PM 41.7750 -88.1100 41° Northeast 208 239 5,200 -1,200 Descending FlightAware
05:20PM 41.7980 -88.0840 40° Northeast 203 234 4,600 -1,200 Descending FlightAware
05:20PM 41.8090 -88.0700 43° Northeast 199 229 4,300 -1,080 Descending FlightAware
05:21PM 41.8250 -88.0520 40° Northeast 192 221 3,900 -1,020 Descending FlightAware
05:21PM 41.8450 -88.0270 43° Northeast 190 219 3,400 -1,140 Descending FlightAware
05:22PM 41.8610 -88.0080 41° Northeast 184 212 2,900 -1,140 Descending FlightAware
05:22PM 41.8810 -87.9850 41° Northeast 184 212 2,400 -900 Descending FlightAware
05:22PM 41.8960 -87.9670 42° Northeast 178 205 2,100 -780 Descending FlightAware
05:23PM 41.9120 -87.9480 41° Northeast 153 176 1,700 -840 Descending FlightAware
05:23PM 41.9280 -87.9300 40° Northeast 137 158 1,300 -780 Descending FlightAware
05:24PM 41.9400 -87.9150 43° Northeast 138 159 1,000 -780 Descending FlightAware
05:24PM 41.9540 -87.8990 40° Northeast 138 159 600 -840 Descending FlightAware